Time,TemperatureF,DewpointF,PressureIn,WindDirection,WindDirectionDegrees,WindSpeedMPH,WindSpeedGustMPH,Humidity,HourlyPrecipIn,Conditions,Clouds,dailyrainin,SoftwareType,DateUTC
2013-08-04 00:02:00,73.1,71.6,30.01,WNW,294,1.1,0.0,95,0.00,RA,,0.00,WeatherDisplay:10.37,2013-08-04 05:02:00,
2013-08-04 00:07:00,73.2,72.0,30.01,NW,325,0.0,0.0,96,0.00,RA,,0.00,WeatherDisplay:10.37,2013-08-04 05:07:00,
2013-08-04 00:12:00,73.3,72.1,30.01,NW,325,0.0,0.0,96,0.00,CLR,,0.00,WeatherDisplay:10.37,2013-08-04 05:12:00,
2013-08-04 00:17:00,73.3,72.1,30.01,NW,325,0.0,0.0,96,0.00,CLR,,0.00,WeatherDisplay:10.37,2013-08-04 05:17:00,
2013-08-04 00:22:00,73.5,72.3,30.02,NW,325,0.0,0.0,96,0.00,CLR,,0.00,WeatherDisplay:10.37,2013-08-04 05:22:00,
2013-08-04 00:27:00,73.5,72.0,30.02,NW,325,0.0,0.0,95,0.00,CLR,,0.00,WeatherDisplay:10.37,2013-08-04 05:27:00,
2013-08-04 00:32:00,73.4,71.9,30.02,NW,325,0.0,0.0,95,0.00,CLR,,0.00,WeatherDisplay:10.37,2013-08-04 05:32:00,
2013-08-04 00:37:00,73.3,71.8,30.02,NW,325,0.0,0.0,95,0.00,CLR,,0.00,WeatherDisplay:10.37,2013-08-04 05:37:00,
2013-08-04 00:42:00,73.3,71.8,30.02,NW,325,0.0,0.0,95,0.00,CLR,,0.00,WeatherDisplay:10.37,2013-08-04 05:42:00,
2013-08-04 00:47:00,73.1,71.6,30.02,NW,325,0.0,0.0,95,0.00,CLR,,0.00,WeatherDisplay:10.37,2013-08-04 05:47:00,
2013-08-04 00:52:00,73.0,71.5,30.02,NW,325,0.0,0.0,95,0.00,CLR,,0.00,WeatherDisplay:10.37,2013-08-04 05:52:00,
2013-08-04 00:57:00,72.9,71.4,30.02,NW,325,0.0,0.0,95,0.00,CLR,,0.00,WeatherDisplay:10.37,2013-08-04 05:57:00,
2013-08-04 01:02:00,72.9,71.4,30.02,NW,325,0.0,0.0,95,0.00,CLR,,0.00,WeatherDisplay:10.37,2013-08-04 06:02:00,
2013-08-04 01:07:00,72.8,71.3,30.02,NW,325,0.0,0.0,95,0.00,CLR,,0.00,WeatherDisplay:10.37,2013-08-04 06:07:00,
2013-08-04 01:12:00,72.8,71.3,30.02,NW,325,0.0,0.0,95,0.00,CLR,,0.00,WeatherDisplay:10.37,2013-08-04 06:12:00,
2013-08-04 01:17:00,72.7,71.2,30.02,NW,325,0.0,0.0,95,0.00,CLR,,0.00,WeatherDisplay:10.37,2013-08-04 06:17:00,
2013-08-04 01:22:00,72.7,71.2,30.02,NW,325,0.0,0.0,95,0.00,CLR,,0.00,WeatherDisplay:10.37,2013-08-04 06:22:00,
2013-08-04 01:27:00,72.7,71.2,30.02,NW,325,0.0,0.0,95,0.00,CLR,,0.00,WeatherDisplay:10.37,2013-08-04 06:27:00,
2013-08-04 01:32:00,72.7,71.2,30.02,NW,325,0.0,0.0,95,0.00,CLR,,0.00,WeatherDisplay:10.37,2013-08-04 06:32:00,
2013-08-04 01:37:00,72.6,70.8,30.01,NW,325,0.0,0.0,94,0.00,CLR,,0.00,WeatherDisplay:10.37,2013-08-04 06:37:00,
2013-08-04 01:42:00,72.5,71.0,30.01,NW,325,0.0,0.0,95,0.00,CLR,,0.00,WeatherDisplay:10.37,2013-08-04 06:42:00,
2013-08-04 01:47:00,72.4,70.6,30.01,NW,325,0.0,0.0,94,0.00,CLR,,0.00,WeatherDisplay:10.37,2013-08-04 06:47:00,
2013-08-04 01:52:00,72.3,70.8,30.01,NW,325,0.0,0.0,95,0.00,CLR,,0.00,WeatherDisplay:10.37,2013-08-04 06:52:00,
2013-08-04 01:57:00,72.3,70.8,30.01,NW,325,0.0,0.0,95,0.00,CLR,,0.00,WeatherDisplay:10.37,2013-08-04 06:57:00,
2013-08-04 02:02:00,72.3,70.8,30.01,NW,325,0.0,0.0,95,0.00,CLR,,0.00,WeatherDisplay:10.37,2013-08-04 07:02:00,
2013-08-04 02:08:00,72.2,70.7,30.01,NW,325,0.0,0.0,95,0.00,CLR,,0.00,WeatherDisplay:10.37,2013-08-04 07:08:00,
2013-08-04 02:13:00,72.1,70.3,30.01,NW,325,0.0,0.0,94,0.00,CLR,,0.00,WeatherDisplay:10.37,2013-08-04 07:13:00,
2013-08-04 02:18:00,72.1,70.3,30.00,NW,325,0.0,0.0,94,0.00,CLR,,0.00,WeatherDisplay:10.37,2013-08-04 07:18:00,
2013-08-04 02:23:00,72.0,70.2,30.00,NW,325,0.0,0.0,94,0.00,CLR,,0.00,WeatherDisplay:10.37,2013-08-04 07:23:00,
2013-08-04 02:28:00,71.9,70.1,30.00,NW,325,0.0,0.0,94,0.00,CLR,,0.00,WeatherDisplay:10.37,2013-08-04 07:28:00,
2013-08-04 02:33:00,71.9,70.1,30.00,NW,325,0.0,0.0,94,0.00,CLR,,0.00,WeatherDisplay:10.37,2013-08-04 07:33:00,
2013-08-04 02:37:00,71.8,70.3,30.00,NW,325,0.0,0.0,95,0.00,CLR,,0.00,WeatherDisplay:10.37,2013-08-04 07:37:00,
2013-08-04 02:42:00,71.8,70.3,30.00,NW,325,0.0,0.0,95,0.00,CLR,,0.00,WeatherDisplay:10.37,2013-08-04 07:42:00,
2013-08-04 02:48:00,71.7,70.2,30.00,NW,325,0.0,0.0,95,0.00,CLR,,0.00,WeatherDisplay:10.37,2013-08-04 07:48:00,
2013-08-04 02:53:00,71.6,70.1,30.00,NW,325,0.0,0.0,95,0.00,CLR,,0.00,WeatherDisplay:10.37,2013-08-04 07:53:00,
2013-08-04 02:58:00,71.5,69.7,30.00,NW,325,0.0,0.0,94,0.00,CLR,,0.00,WeatherDisplay:10.37,2013-08-04 07:58:00,
2013-08-04 03:02:00,71.3,69.5,30.00,NW,325,0.0,0.0,94,0.00,CLR,,0.00,WeatherDisplay:10.37,2013-08-04 08:02:00,
2013-08-04 03:08:00,71.2,69.4,30.00,NW,325,0.0,0.0,94,0.00,CLR,,0.00,WeatherDisplay:10.37,2013-08-04 08:08:00,
2013-08-04 03:12:00,71.2,69.4,30.00,NW,325,0.0,0.0,94,0.00,CLR,,0.00,WeatherDisplay:10.37,2013-08-04 08:12:00,
2013-08-04 03:17:00,71.1,69.3,30.00,NW,325,0.0,0.0,94,0.00,CLR,,0.00,WeatherDisplay:10.37,2013-08-04 08:17:00,
2013-08-04 03:23:00,71.0,69.2,30.00,NW,325,0.0,0.0,94,0.00,CLR,,0.00,WeatherDisplay:10.37,2013-08-04 08:23:00,
2013-08-04 03:28:00,71.0,69.2,30.00,NW,325,0.0,0.0,94,0.00,CLR,,0.00,WeatherDisplay:10.37,2013-08-04 08:28:00,
2013-08-04 03:33:00,70.9,69.1,30.00,NW,325,0.0,0.0,94,0.00,CLR,,0.00,WeatherDisplay:10.37,2013-08-04 08:33:00,
2013-08-04 03:38:00,70.8,69.0,30.00,NW,325,0.0,0.0,94,0.00,CLR,,0.00,WeatherDisplay:10.37,2013-08-04 08:38:00,
2013-08-04 03:43:00,70.7,68.9,30.00,NW,325,0.0,0.0,94,0.00,CLR,,0.00,WeatherDisplay:10.37,2013-08-04 08:43:00,
2013-08-04 03:48:00,70.6,68.8,30.00,NW,325,0.0,0.0,94,0.00,CLR,,0.00,WeatherDisplay:10.37,2013-08-04 08:48:00,
2013-08-04 03:53:00,70.6,68.8,30.00,NW,325,0.0,0.0,94,0.00,CLR,,0.00,WeatherDisplay:10.37,2013-08-04 08:53:00,
2013-08-04 03:58:00,70.5,68.7,30.00,NW,325,0.0,0.0,94,0.00,CLR,,0.00,WeatherDisplay:10.37,2013-08-04 08:58:00,
2013-08-04 04:03:00,70.4,68.3,30.00,NW,325,0.0,0.0,93,0.00,CLR,,0.00,WeatherDisplay:10.37,2013-08-04 09:03:00,
2013-08-04 04:08:00,70.3,68.2,30.00,NW,325,0.0,0.0,93,0.00,CLR,,0.00,WeatherDisplay:10.37,2013-08-04 09:08:00,
2013-08-04 04:13:00,70.3,68.2,30.00,NW,325,0.0,0.0,93,0.00,CLR,,0.00,WeatherDisplay:10.37,2013-08-04 09:13:00,
2013-08-04 04:18:00,70.2,68.1,30.01,NW,325,0.0,0.0,93,0.00,CLR,,0.00,WeatherDisplay:10.37,2013-08-04 09:18:00,
2013-08-04 04:23:00,70.1,68.0,30.01,NW,325,0.0,0.0,93,0.00,CLR,,0.00,WeatherDisplay:10.37,2013-08-04 09:23:00,
2013-08-04 04:28:00,70.0,67.9,30.01,NW,325,0.0,0.0,93,0.00,CLR,,0.00,WeatherDisplay:10.37,2013-08-04 09:28:00,
2013-08-04 04:33:00,69.9,67.8,30.02,NW,325,0.0,0.0,93,0.00,CLR,,0.00,WeatherDisplay:10.37,2013-08-04 09:33:00,
2013-08-04 04:38:00,69.8,67.7,30.02,NW,325,0.0,0.0,93,0.00,CLR,,0.00,WeatherDisplay:10.37,2013-08-04 09:38:00,
2013-08-04 04:43:00,69.7,67.6,30.02,NW,325,0.0,0.0,93,0.00,CLR,,0.00,WeatherDisplay:10.37,2013-08-04 09:43:00,
2013-08-04 04:48:00,69.6,67.5,30.02,NW,325,0.0,0.0,93,0.00,CLR,,0.00,WeatherDisplay:10.37,2013-08-04 09:48:00,
2013-08-04 04:53:00,69.5,67.4,30.02,NW,325,0.0,0.0,93,0.00,CLR,,0.00,WeatherDisplay:10.37,2013-08-04 09:53:00,
2013-08-04 04:58:00,69.4,67.3,30.03,NW,325,0.0,0.0,93,0.00,CLR,,0.00,WeatherDisplay:10.37,2013-08-04 09:58:00,
2013-08-04 05:03:00,69.4,67.3,30.03,NW,325,0.0,0.0,93,0.00,CLR,,0.00,WeatherDisplay:10.37,2013-08-04 10:03:00,
2013-08-04 05:08:00,69.3,67.2,30.04,NW,325,0.0,0.0,93,0.00,CLR,,0.00,WeatherDisplay:10.37,2013-08-04 10:08:00,
2013-08-04 05:13:00,69.2,67.1,30.04,NW,325,0.0,0.0,93,0.00,CLR,,0.00,WeatherDisplay:10.37,2013-08-04 10:13:00,
2013-08-04 05:18:00,69.1,67.0,30.04,NW,325,0.0,0.0,93,0.00,CLR,,0.00,WeatherDisplay:10.37,2013-08-04 10:18:00,
2013-08-04 05:23:00,69.1,67.0,30.04,NW,325,0.0,0.0,93,0.00,CLR,,0.00,WeatherDisplay:10.37,2013-08-04 10:23:00,
2013-08-04 05:28:00,69.0,66.9,30.04,NW,325,0.0,0.0,93,0.00,CLR,,0.00,WeatherDisplay:10.37,2013-08-04 10:28:00,
2013-08-04 05:33:00,68.9,66.8,30.05,NW,325,0.0,0.0,93,0.00,CLR,,0.00,WeatherDisplay:10.37,2013-08-04 10:33:00,
2013-08-04 05:38:00,68.8,66.7,30.05,NW,325,0.0,0.0,93,0.00,CLR,,0.00,WeatherDisplay:10.37,2013-08-04 10:38:00,
2013-08-04 05:43:00,68.6,66.8,30.05,NW,325,0.0,0.0,94,0.00,CLR,,0.00,WeatherDisplay:10.37,2013-08-04 10:43:00,
2013-08-04 05:48:00,68.5,66.4,30.05,NW,325,0.0,0.0,93,0.00,CLR,,0.00,WeatherDisplay:10.37,2013-08-04 10:48:00,
2013-08-04 05:53:00,68.4,66.3,30.05,NW,325,0.0,0.0,93,0.00,CLR,,0.00,WeatherDisplay:10.37,2013-08-04 10:53:00,
2013-08-04 05:58:00,68.4,66.3,30.05,NW,325,0.0,0.0,93,0.00,CLR,,0.00,WeatherDisplay:10.37,2013-08-04 10:58:00,
2013-08-04 06:03:00,68.3,66.5,30.05,NW,325,0.0,0.0,94,0.00,CLR,,0.00,WeatherDisplay:10.37,2013-08-04 11:03:00,
2013-08-04 06:08:00,68.3,66.5,30.06,NW,325,0.0,0.0,94,0.00,CLR,,0.00,WeatherDisplay:10.37,2013-08-04 11:08:00,
2013-08-04 06:13:00,68.3,66.5,30.06,NW,325,0.0,0.0,94,0.00,CLR,,0.00,WeatherDisplay:10.37,2013-08-04 11:13:00,
2013-08-04 06:18:00,68.2,66.4,30.06,NW,325,0.0,0.0,94,0.00,CLR,,0.00,WeatherDisplay:10.37,2013-08-04 11:18:00,
2013-08-04 06:23:00,68.2,66.4,30.06,NW,325,0.0,0.0,94,0.00,CLR,,0.00,WeatherDisplay:10.37,2013-08-04 11:23:00,
2013-08-04 06:28:00,68.1,66.3,30.05,SW,220,0.0,0.0,94,0.00,CLR,,0.00,WeatherDisplay:10.37,2013-08-04 11:28:00,
2013-08-04 06:33:00,68.2,66.4,30.06,SW,220,0.0,0.0,94,0.00,CLR,,0.00,WeatherDisplay:10.37,2013-08-04 11:33:00,
2013-08-04 06:38:00,68.2,66.4,30.06,SW,220,0.0,0.0,94,0.00,CLR,,0.00,WeatherDisplay:10.37,2013-08-04 11:38:00,
2013-08-04 06:43:00,68.2,66.1,30.06,SW,220,0.0,0.0,93,0.00,CLR,,0.00,WeatherDisplay:10.37,2013-08-04 11:43:00,
2013-08-04 06:48:00,68.3,66.5,30.06,SW,220,0.0,0.0,94,0.00,CLR,,0.00,WeatherDisplay:10.37,2013-08-04 11:48:00,
2013-08-04 06:53:00,68.4,66.3,30.06,SW,220,0.0,0.0,93,0.00,CLR,,0.00,WeatherDisplay:10.37,2013-08-04 11:53:00,
2013-08-04 06:58:00,68.5,66.4,30.06,North,355,0.0,0.0,93,0.00,CLR,,0.00,WeatherDisplay:10.37,2013-08-04 11:58:00,
2013-08-04 07:03:00,68.6,66.5,30.06,North,355,0.0,0.0,93,0.00,CLR,,0.00,WeatherDisplay:10.37,2013-08-04 12:03:00,
2013-08-04 07:08:00,68.6,66.5,30.06,North,355,0.0,0.0,93,0.00,CLR,,0.00,WeatherDisplay:10.37,2013-08-04 12:08:00,
2013-08-04 07:13:00,68.7,66.3,30.06,North,355,0.0,0.0,92,0.00,CLR,,0.00,WeatherDisplay:10.37,2013-08-04 12:13:00,
2013-08-04 07:18:00,68.8,66.4,30.06,North,355,0.0,0.0,92,0.00,CLR,,0.00,WeatherDisplay:10.37,2013-08-04 12:18:00,
2013-08-04 07:23:00,68.9,66.5,30.06,North,355,0.0,0.0,92,0.00,CLR,,0.00,WeatherDisplay:10.37,2013-08-04 12:23:00,
2013-08-04 07:28:00,69.0,66.6,30.06,North,360,0.0,0.0,92,0.00,CLR,,0.00,WeatherDisplay:10.37,2013-08-04 12:28:00,
2013-08-04 07:34:00,69.1,66.4,30.06,North,360,0.0,0.0,91,0.00,CLR,,0.00,WeatherDisplay:10.37,2013-08-04 12:34:00,
2013-08-04 07:39:00,69.2,66.8,30.06,North,360,0.0,0.0,92,0.00,CLR,,0.00,WeatherDisplay:10.37,2013-08-04 12:39:00,
2013-08-04 07:43:00,69.4,67.0,30.06,North,360,0.0,0.0,92,0.00,CLR,,0.00,WeatherDisplay:10.37,2013-08-04 12:43:00,
2013-08-04 07:49:00,69.5,66.8,30.06,North,360,0.0,0.0,91,0.00,CLR,,0.00,WeatherDisplay:10.37,2013-08-04 12:49:00,
2013-08-04 07:54:00,69.5,66.8,30.06,North,360,0.0,0.0,91,0.00,CLR,,0.00,WeatherDisplay:10.37,2013-08-04 12:54:00,
2013-08-04 07:58:00,69.6,66.9,30.07,North,360,0.0,0.0,91,0.00,CLR,,0.00,WeatherDisplay:10.37,2013-08-04 12:58:00,
2013-08-04 08:03:00,69.7,67.0,30.07,North,360,0.0,0.0,91,0.00,CLR,,0.00,WeatherDisplay:10.37,2013-08-04 13:03:00,
2013-08-04 08:09:00,69.8,67.1,30.06,North,360,0.0,0.0,91,0.00,CLR,,0.00,WeatherDisplay:10.37,2013-08-04 13:09:00,
2013-08-04 08:14:00,70.1,67.0,30.07,North,5,0.0,0.0,90,0.00,CLR,,0.00,WeatherDisplay:10.37,2013-08-04 13:14:00,
2013-08-04 08:19:00,70.2,66.8,30.07,North,5,0.0,0.0,89,0.00,CLR,,0.00,WeatherDisplay:10.37,2013-08-04 13:19:00,
2013-08-04 08:23:00,70.4,67.0,30.07,North,5,0.0,0.0,89,0.00,CLR,,0.00,WeatherDisplay:10.37,2013-08-04 13:23:00,
2013-08-04 08:28:00,70.5,66.8,30.07,North,5,0.0,0.0,88,0.00,CLR,,0.00,WeatherDisplay:10.37,2013-08-04 13:28:00,
2013-08-04 08:34:00,70.6,66.9,30.07,North,5,0.0,0.0,88,0.00,CLR,,0.00,WeatherDisplay:10.37,2013-08-04 13:34:00,
2013-08-04 08:39:00,70.7,66.6,30.07,North,5,0.0,0.0,87,0.00,CLR,,0.00,WeatherDisplay:10.37,2013-08-04 13:39:00,
2013-08-04 08:44:00,70.8,66.4,30.07,North,5,0.0,0.0,86,0.00,CLR,,0.00,WeatherDisplay:10.37,2013-08-04 13:44:00,
2013-08-04 08:49:00,71.0,66.6,30.07,North,5,0.0,0.0,86,0.00,CLR,,0.00,WeatherDisplay:10.37,2013-08-04 13:49:00,
2013-08-04 08:54:00,71.3,66.6,30.07,North,5,0.0,0.0,85,0.00,CLR,,0.00,WeatherDisplay:10.37,2013-08-04 13:54:00,
2013-08-04 08:59:00,71.5,66.4,30.08,North,5,0.0,0.0,84,0.00,CLR,,0.00,WeatherDisplay:10.37,2013-08-04 13:59:00,
2013-08-04 09:04:00,71.9,66.1,30.07,NNE,15,0.0,0.0,82,0.00,CLR,,0.00,WeatherDisplay:10.37,2013-08-04 14:04:00,
2013-08-04 09:09:00,72.4,66.2,30.08,ENE,57,0.0,0.0,81,0.00,CLR,,0.00,WeatherDisplay:10.37,2013-08-04 14:09:00,
2013-08-04 09:14:00,72.8,65.5,30.08,ENE,57,0.0,0.0,78,0.00,CLR,,0.00,WeatherDisplay:10.37,2013-08-04 14:14:00,
2013-08-04 09:19:00,73.0,65.0,30.08,ENE,57,0.0,0.0,76,0.00,CLR,,0.00,WeatherDisplay:10.37,2013-08-04 14:19:00,
2013-08-04 09:24:00,73.5,65.8,30.08,East,93,0.0,0.0,77,0.00,CLR,,0.00,WeatherDisplay:10.37,2013-08-04 14:24:00,
2013-08-04 09:29:00,73.7,65.3,30.08,East,93,0.0,0.0,75,0.00,CLR,,0.00,WeatherDisplay:10.37,2013-08-04 14:29:00,
2013-08-04 09:34:00,74.0,65.6,30.08,NE,44,0.0,0.0,75,0.00,CLR,,0.00,WeatherDisplay:10.37,2013-08-04 14:34:00,
2013-08-04 09:39:00,74.2,65.4,30.08,NE,44,0.0,0.0,74,0.00,CLR,,0.00,WeatherDisplay:10.37,2013-08-04 14:39:00,
2013-08-04 09:44:00,74.5,65.7,30.08,NE,44,0.0,0.0,74,0.00,CLR,,0.00,WeatherDisplay:10.37,2013-08-04 14:44:00,
2013-08-04 09:49:00,75.0,66.1,30.08,NE,44,0.0,0.0,74,0.00,CLR,,0.00,WeatherDisplay:10.37,2013-08-04 14:49:00,
2013-08-04 09:54:00,75.5,65.8,30.08,NE,44,0.0,0.0,72,0.00,CLR,,0.00,WeatherDisplay:10.37,2013-08-04 14:54:00,
2013-08-04 09:59:00,75.7,64.4,30.09,NE,48,0.0,0.0,68,0.00,CLR,,0.00,WeatherDisplay:10.37,2013-08-04 14:59:00,
2013-08-04 10:04:00,76.1,64.8,30.09,ENE,63,0.0,0.0,68,0.00,CLR,,0.00,WeatherDisplay:10.37,2013-08-04 15:04:00,
2013-08-04 10:09:00,76.4,65.1,30.09,ENE,63,0.0,0.0,68,0.00,CLR,,0.00,WeatherDisplay:10.37,2013-08-04 15:09:00,
2013-08-04 10:14:00,76.5,64.7,30.08,ENE,61,0.0,0.0,67,0.00,CLR,,0.00,WeatherDisplay:10.37,2013-08-04 15:14:00,
2013-08-04 10:19:00,76.6,64.8,30.09,NE,54,0.0,0.0,67,0.00,CLR,,0.00,WeatherDisplay:10.37,2013-08-04 15:19:00,
2013-08-04 10:24:00,76.7,64.5,30.09,NE,50,0.0,0.0,66,0.00,CLR,,0.00,WeatherDisplay:10.37,2013-08-04 15:24:00,
2013-08-04 10:29:00,76.8,64.1,30.09,NE,49,0.0,0.0,65,0.00,CLR,,0.00,WeatherDisplay:10.37,2013-08-04 15:29:00,
2013-08-04 10:34:00,77.0,64.8,30.09,NE,49,0.0,0.0,66,0.00,CLR,,0.00,WeatherDisplay:10.37,2013-08-04 15:34:00,
2013-08-04 10:39:00,77.3,64.2,30.09,NE,40,0.0,0.0,64,0.00,CLR,,0.00,WeatherDisplay:10.37,2013-08-04 15:39:00,
2013-08-04 10:44:00,77.3,64.6,30.09,NE,40,0.0,0.0,65,0.00,CLR,,0.00,WeatherDisplay:10.37,2013-08-04 15:44:00,
2013-08-04 10:49:00,77.6,64.9,30.08,NE,42,0.0,0.0,65,0.00,CLR,,0.00,WeatherDisplay:10.37,2013-08-04 15:49:00,
2013-08-04 10:54:00,78.1,66.2,30.08,NE,42,0.0,0.0,67,0.00,CLR,,0.00,WeatherDisplay:10.37,2013-08-04 15:54:00,
2013-08-04 10:59:00,78.4,65.2,30.08,NNE,32,0.0,0.0,64,0.00,CLR,,0.00,WeatherDisplay:10.37,2013-08-04 15:59:00,
2013-08-04 11:04:00,78.6,65.4,30.08,NNE,31,0.0,0.0,64,0.00,CLR,,0.00,WeatherDisplay:10.37,2013-08-04 16:04:00,
2013-08-04 11:09:00,78.7,65.0,30.08,NNE,19,0.0,0.0,63,0.00,CLR,,0.00,WeatherDisplay:10.37,2013-08-04 16:09:00,
2013-08-04 11:14:00,78.6,64.9,30.08,ENE,71,0.0,0.0,63,0.00,CLR,,0.00,WeatherDisplay:10.37,2013-08-04 16:14:00,
2013-08-04 11:19:00,78.5,63.9,30.08,NE,41,0.0,0.0,61,0.00,CLR,,0.00,WeatherDisplay:10.37,2013-08-04 16:19:00,
2013-08-04 11:24:00,78.8,66.0,30.08,NE,36,1.0,0.0,65,0.00,CLR,,0.00,WeatherDisplay:10.37,2013-08-04 16:24:00,
2013-08-04 11:29:00,79.0,64.9,30.08,NNE,15,1.1,1.1,62,0.00,CLR,,0.00,WeatherDisplay:10.37,2013-08-04 16:29:00,
2013-08-04 11:34:00,79.1,64.0,30.08,NNE,29,2.0,2.0,60,0.00,CLR,,0.00,WeatherDisplay:10.37,2013-08-04 16:34:00,
2013-08-04 11:39:00,79.0,63.9,30.08,NNE,17,1.1,1.1,60,0.00,CLR,,0.00,WeatherDisplay:10.37,2013-08-04 16:39:00,
2013-08-04 11:44:00,79.0,64.4,30.08,NNE,26,1.1,1.1,61,0.00,CLR,,0.00,WeatherDisplay:10.37,2013-08-04 16:44:00,
2013-08-04 11:49:00,79.1,65.0,30.08,NNE,26,0.0,0.0,62,0.00,CLR,,0.00,WeatherDisplay:10.37,2013-08-04 16:49:00,
2013-08-04 11:54:00,79.3,64.7,30.08,NE,36,0.0,0.0,61,0.00,CLR,,0.00,WeatherDisplay:10.37,2013-08-04 16:54:00,
2013-08-04 11:59:00,79.6,65.4,30.07,NE,37,1.1,1.1,62,0.00,CLR,,0.00,WeatherDisplay:10.37,2013-08-04 16:59:00,
2013-08-04 12:04:00,80.0,64.9,30.07,NE,37,0.0,0.0,60,0.00,CLR,,0.00,WeatherDisplay:10.37,2013-08-04 17:04:00,
2013-08-04 12:09:00,80.1,64.5,30.07,NE,37,1.1,1.1,59,0.00,CLR,,0.00,WeatherDisplay:10.37,2013-08-04 17:09:00,
2013-08-04 12:14:00,80.2,66.0,30.07,NE,53,1.1,0.0,62,0.00,CLR,,0.00,WeatherDisplay:10.37,2013-08-04 17:14:00,
2013-08-04 12:19:00,80.5,66.3,30.07,NE,53,0.0,0.0,62,0.00,CLR,,0.00,WeatherDisplay:10.37,2013-08-04 17:19:00,
2013-08-04 12:24:00,80.7,66.9,30.07,NE,53,0.0,0.0,63,0.00,CLR,,0.00,WeatherDisplay:10.37,2013-08-04 17:24:00,
2013-08-04 12:29:00,80.6,65.9,30.07,East,84,1.1,1.1,61,0.00,CLR,,0.00,WeatherDisplay:10.37,2013-08-04 17:29:00,
2013-08-04 12:34:00,80.7,64.1,30.07,ENE,76,1.1,0.0,57,0.00,CLR,,0.00,WeatherDisplay:10.37,2013-08-04 17:34:00,
2013-08-04 12:39:00,80.5,63.9,30.07,NNE,26,2.0,2.0,57,0.00,CLR,,0.00,WeatherDisplay:10.37,2013-08-04 17:39:00,
2013-08-04 12:44:00,80.2,63.6,30.06,NNE,26,1.1,0.0,57,0.00,CLR,,0.00,WeatherDisplay:10.37,2013-08-04 17:44:00,
2013-08-04 12:49:00,80.1,64.5,30.06,NNE,26,1.1,0.0,59,0.00,CLR,,0.00,WeatherDisplay:10.37,2013-08-04 17:49:00,
2013-08-04 12:54:00,80.0,64.9,30.06,NE,49,0.0,0.0,60,0.00,CLR,,0.00,WeatherDisplay:10.37,2013-08-04 17:54:00,
2013-08-04 12:59:00,80.0,64.4,30.06,East,80,1.1,0.0,59,0.00,CLR,,0.00,WeatherDisplay:10.37,2013-08-04 17:59:00,
2013-08-04 13:04:00,80.0,64.9,30.06,ENE,66,0.0,0.0,60,0.00,CLR,,0.00,WeatherDisplay:10.37,2013-08-04 18:04:00,
2013-08-04 13:09:00,79.8,64.7,30.06,ENE,66,1.1,1.1,60,0.00,CLR,,0.00,WeatherDisplay:10.37,2013-08-04 18:09:00,
2013-08-04 13:15:00,79.7,66.0,30.05,ENE,66,0.0,1.0,63,0.00,CLR,,0.00,WeatherDisplay:10.37,2013-08-04 18:15:00,
2013-08-04 13:20:00,79.5,63.9,30.05,ENE,66,0.0,1.0,59,0.00,CLR,,0.00,WeatherDisplay:10.37,2013-08-04 18:20:00,
2013-08-04 13:25:00,79.4,64.8,30.05,ENE,66,0.0,1.0,61,0.00,CLR,,0.00,WeatherDisplay:10.37,2013-08-04 18:25:00,
2013-08-04 13:29:00,79.3,64.7,30.05,ENE,66,0.0,1.0,61,0.00,CLR,,0.00,WeatherDisplay:10.37,2013-08-04 18:29:00,
2013-08-04 13:35:00,79.3,65.1,30.05,ENE,66,0.0,0.0,62,0.00,CLR,,0.00,WeatherDisplay:10.37,2013-08-04 18:35:00,
2013-08-04 13:40:00,79.4,65.7,30.05,ENE,66,0.0,0.0,63,0.00,CLR,,0.00,WeatherDisplay:10.37,2013-08-04 18:40:00,
2013-08-04 13:45:00,79.5,65.8,30.06,ENE,66,0.0,0.0,63,0.00,CLR,,0.00,WeatherDisplay:10.37,2013-08-04 18:45:00,
2013-08-04 13:50:00,79.6,65.4,30.05,ENE,66,0.0,0.0,62,0.00,CLR,,0.00,WeatherDisplay:10.37,2013-08-04 18:50:00,
2013-08-04 13:54:00,79.7,66.0,30.05,ENE,66,0.0,0.0,63,0.00,CLR,,0.00,WeatherDisplay:10.37,2013-08-04 18:54:00,
2013-08-04 13:59:00,79.8,66.1,30.05,ENE,66,1.1,0.0,63,0.00,CLR,,0.00,WeatherDisplay:10.37,2013-08-04 18:59:00,
2013-08-04 14:04:00,79.8,66.1,30.05,ENE,59,1.1,1.1,63,0.00,CLR,,0.00,WeatherDisplay:10.37,2013-08-04 19:04:00,
2013-08-04 14:09:00,79.6,65.9,30.06,ENE,59,0.0,0.0,63,0.00,CLR,,0.00,WeatherDisplay:10.37,2013-08-04 19:09:00,
2013-08-04 14:15:00,79.6,66.3,30.06,ENE,59,0.0,1.0,64,0.00,CLR,,0.00,WeatherDisplay:10.37,2013-08-04 19:15:00,
2013-08-04 14:20:00,79.8,66.1,30.06,NNE,32,1.0,1.0,63,0.00,CLR,,0.00,WeatherDisplay:10.37,2013-08-04 19:20:00,
2013-08-04 14:25:00,79.8,64.7,30.06,NE,54,0.0,2.0,60,0.00,CLR,,0.00,WeatherDisplay:10.37,2013-08-04 19:25:00,
2013-08-04 14:29:00,80.0,65.8,30.05,NNE,28,1.0,1.0,62,0.00,CLR,,0.00,WeatherDisplay:10.37,2013-08-04 19:29:00,
2013-08-04 14:35:00,80.3,66.6,30.05,ENE,67,0.0,0.2,63,0.00,CLR,,0.00,WeatherDisplay:10.37,2013-08-04 19:35:00,
2013-08-04 14:40:00,80.3,64.2,30.05,East,79,0.0,1.0,58,0.00,CLR,,0.00,WeatherDisplay:10.37,2013-08-04 19:40:00,
2013-08-04 14:45:00,80.3,65.1,30.05,ENE,67,0.0,1.0,60,0.00,CLR,,0.00,WeatherDisplay:10.37,2013-08-04 19:45:00,
2013-08-04 14:50:00,80.1,65.0,30.05,ENE,59,0.0,0.0,60,0.00,CLR,,0.00,WeatherDisplay:10.37,2013-08-04 19:50:00,
2013-08-04 14:55:00,80.0,65.3,30.05,ENE,59,0.0,1.0,61,0.00,CLR,,0.00,WeatherDisplay:10.37,2013-08-04 19:55:00,
2013-08-04 15:00:00,80.0,65.3,30.05,ENE,59,0.0,0.0,61,0.00,CLR,,0.00,WeatherDisplay:10.37,2013-08-04 20:00:00,
2013-08-04 15:05:00,80.1,65.4,30.04,ENE,59,0.0,0.0,61,0.00,CLR,,0.00,WeatherDisplay:10.37,2013-08-04 20:05:00,
2013-08-04 15:10:00,80.1,65.4,30.04,ENE,59,0.0,0.0,61,0.00,CLR,,0.00,WeatherDisplay:10.37,2013-08-04 20:10:00,
2013-08-04 15:15:00,80.1,65.9,30.04,ENE,59,0.0,0.0,62,0.00,CLR,,0.00,WeatherDisplay:10.37,2013-08-04 20:15:00,
2013-08-04 15:19:00,80.2,66.0,30.04,ENE,59,1.1,0.0,62,0.00,CLR,,0.00,WeatherDisplay:10.37,2013-08-04 20:19:00,
2013-08-04 15:25:00,80.2,65.5,30.04,NE,42,1.1,0.0,61,0.00,CLR,,0.00,WeatherDisplay:10.37,2013-08-04 20:25:00,
2013-08-04 15:30:00,80.3,66.1,30.04,NE,42,0.0,0.0,62,0.00,CLR,,0.00,WeatherDisplay:10.37,2013-08-04 20:30:00,
2013-08-04 15:34:00,80.4,64.8,30.04,NNE,32,1.1,0.0,59,0.00,CLR,,0.00,WeatherDisplay:10.37,2013-08-04 20:34:00,
2013-08-04 15:39:00,80.3,65.1,30.04,NNW,328,1.1,0.0,60,0.00,CLR,,0.00,WeatherDisplay:10.37,2013-08-04 20:39:00,
2013-08-04 15:44:00,80.3,66.1,30.04,NNW,328,0.0,0.0,62,0.00,CLR,,0.00,WeatherDisplay:10.37,2013-08-04 20:44:00,
2013-08-04 15:45:00,80.3,66.1,30.04,NW,325,0.0,0.0,62,0.00,CLR,,0.00,WeatherDisplay:10.37,2013-08-04 20:45:00,
2013-08-04 15:49:00,80.2,65.1,30.03,NNW,339,0.0,3.0,60,0.00,CLR,,0.00,WeatherDisplay:10.37,2013-08-04 20:49:00,
2013-08-04 15:55:00,80.2,66.0,30.03,North,5,1.1,0.0,62,0.00,CLR,,0.00,WeatherDisplay:10.37,2013-08-04 20:55:00,
2013-08-04 15:59:00,80.3,67.0,30.03,North,1,0.0,1.0,64,0.00,CLR,,0.00,WeatherDisplay:10.37,2013-08-04 20:59:00,
2013-08-04 16:04:00,80.4,67.1,30.03,North,5,0.0,0.0,64,0.00,CLR,,0.00,WeatherDisplay:10.37,2013-08-04 21:04:00,
2013-08-04 16:10:00,80.4,65.7,30.03,North,5,1.1,0.0,61,0.00,CLR,,0.00,WeatherDisplay:10.37,2013-08-04 21:10:00,
2013-08-04 16:15:00,80.3,65.6,30.03,North,5,0.0,0.0,61,0.00,CLR,,0.00,WeatherDisplay:10.37,2013-08-04 21:15:00,
2013-08-04 16:19:00,80.3,65.1,30.04,North,5,1.1,0.0,60,0.00,CLR,,0.00,WeatherDisplay:10.37,2013-08-04 21:19:00,
2013-08-04 16:25:00,80.2,65.1,30.04,North,11,0.0,0.0,60,0.00,CLR,,0.00,WeatherDisplay:10.37,2013-08-04 21:25:00,
2013-08-04 16:30:00,80.1,64.5,30.03,North,11,0.0,1.0,59,0.00,CLR,,0.00,WeatherDisplay:10.37,2013-08-04 21:30:00,
2013-08-04 16:35:00,80.1,65.0,30.03,North,11,1.1,0.0,60,0.00,CLR,,0.00,WeatherDisplay:10.37,2013-08-04 21:35:00,
2013-08-04 16:40:00,80.1,65.4,30.03,North,11,0.0,0.0,61,0.00,CLR,,0.00,WeatherDisplay:10.37,2013-08-04 21:40:00,
2013-08-04 16:45:00,80.1,64.5,30.03,NNE,20,0.0,0.0,59,0.00,CLR,,0.00,WeatherDisplay:10.37,2013-08-04 21:45:00,
2013-08-04 16:49:00,80.1,64.0,30.03,NNE,20,1.1,0.0,58,0.00,CLR,,0.00,WeatherDisplay:10.37,2013-08-04 21:49:00,
2013-08-04 16:54:00,80.1,63.5,30.03,NNE,13,0.0,0.0,57,0.00,CLR,,0.00,WeatherDisplay:10.37,2013-08-04 21:54:00,
2013-08-04 16:59:00,80.1,64.0,30.03,NNE,13,0.0,0.0,58,0.00,CLR,,0.00,WeatherDisplay:10.37,2013-08-04 21:59:00,
2013-08-04 17:04:00,80.1,65.0,30.03,NNE,13,0.0,0.0,60,0.00,CLR,,0.00,WeatherDisplay:10.37,2013-08-04 22:04:00,
2013-08-04 17:09:00,80.1,64.5,30.03,NNE,13,1.1,0.0,59,0.00,CLR,,0.00,WeatherDisplay:10.37,2013-08-04 22:09:00,
2013-08-04 17:14:00,80.2,66.0,30.03,NNE,13,2.3,2.3,62,0.00,CLR,,0.00,WeatherDisplay:10.37,2013-08-04 22:14:00,
2013-08-04 17:19:00,80.2,65.5,30.03,NNE,13,0.0,0.0,61,0.00,CLR,,0.00,WeatherDisplay:10.37,2013-08-04 22:19:00,
2013-08-04 17:24:00,80.0,64.9,30.03,NNE,15,1.1,1.1,60,0.00,CLR,,0.00,WeatherDisplay:10.37,2013-08-04 22:24:00,
2013-08-04 17:29:00,79.6,64.5,30.02,NNE,21,1.1,0.0,60,0.00,CLR,,0.00,WeatherDisplay:10.37,2013-08-04 22:29:00,
2013-08-04 17:34:00,79.3,64.7,30.02,NNE,21,0.0,0.0,61,0.00,CLR,,0.00,WeatherDisplay:10.37,2013-08-04 22:34:00,
2013-08-04 17:39:00,79.1,64.5,30.02,NNE,21,0.0,0.0,61,0.00,CLR,,0.00,WeatherDisplay:10.37,2013-08-04 22:39:00,
2013-08-04 17:44:00,79.0,64.4,30.02,NNE,21,0.0,0.0,61,0.00,CLR,,0.00,WeatherDisplay:10.37,2013-08-04 22:44:00,
2013-08-04 17:49:00,78.9,64.3,30.03,NNE,21,0.0,0.0,61,0.00,CLR,,0.00,WeatherDisplay:10.37,2013-08-04 22:49:00,
2013-08-04 17:54:00,78.8,64.2,30.02,NNE,21,1.1,1.1,61,0.00,CLR,,0.00,WeatherDisplay:10.37,2013-08-04 22:54:00,
2013-08-04 17:59:00,78.7,64.1,30.03,NNE,21,0.0,0.0,61,0.00,CLR,,0.00,WeatherDisplay:10.37,2013-08-04 22:59:00,
2013-08-04 18:04:00,78.5,64.4,30.03,NNE,21,0.0,0.0,62,0.00,CLR,,0.00,WeatherDisplay:10.37,2013-08-04 23:04:00,
2013-08-04 18:09:00,78.4,64.8,30.03,NNE,21,0.0,0.0,63,0.00,CLR,,0.00,WeatherDisplay:10.37,2013-08-04 23:09:00,
2013-08-04 18:14:00,78.2,64.6,30.03,NNE,21,0.0,0.0,63,0.00,CLR,,0.00,WeatherDisplay:10.37,2013-08-04 23:14:00,
2013-08-04 18:19:00,78.1,66.2,30.03,NNE,21,0.0,0.0,67,0.00,CLR,,0.00,WeatherDisplay:10.37,2013-08-04 23:19:00,
2013-08-04 18:24:00,77.9,64.7,30.03,NNE,21,0.0,0.0,64,0.00,CLR,,0.00,WeatherDisplay:10.37,2013-08-04 23:24:00,
2013-08-04 18:29:00,77.6,64.5,30.03,NNE,21,0.0,0.0,64,0.00,CLR,,0.00,WeatherDisplay:10.37,2013-08-04 23:29:00,
2013-08-04 18:34:00,77.5,64.4,30.03,NNE,21,0.0,0.0,64,0.00,CLR,,0.00,WeatherDisplay:10.37,2013-08-04 23:34:00,
2013-08-04 18:39:00,77.3,64.6,30.03,NNE,21,0.0,0.0,65,0.00,CLR,,0.00,WeatherDisplay:10.37,2013-08-04 23:39:00,
2013-08-04 18:44:00,77.1,64.9,30.03,NNE,21,0.0,0.0,66,0.00,CLR,,0.00,WeatherDisplay:10.37,2013-08-04 23:44:00,
2013-08-04 18:49:00,77.0,65.2,30.03,NNE,21,0.0,0.0,67,0.00,CLR,,0.00,WeatherDisplay:10.37,2013-08-04 23:49:00,
2013-08-04 18:54:00,76.9,65.1,30.03,NNE,21,0.0,0.0,67,0.00,CLR,,0.00,WeatherDisplay:10.37,2013-08-04 23:54:00,
2013-08-04 18:59:00,76.8,66.3,30.03,NNE,21,0.0,0.0,70,0.00,CLR,,0.00,WeatherDisplay:10.37,2013-08-04 23:59:00,
2013-08-04 19:04:00,76.6,65.7,30.03,NNE,21,0.0,0.0,69,0.00,CLR,,0.00,WeatherDisplay:10.37,2013-08-05 00:04:00,
2013-08-04 19:09:00,76.4,65.1,30.03,NNE,21,0.0,0.0,68,0.00,CLR,,0.00,WeatherDisplay:10.37,2013-08-05 00:09:00,
2013-08-04 19:14:00,76.4,66.3,30.03,NNE,21,0.0,0.0,71,0.00,CLR,,0.00,WeatherDisplay:10.37,2013-08-05 00:14:00,
2013-08-04 19:19:00,76.2,65.7,30.02,NNE,21,0.0,0.0,70,0.00,CLR,,0.00,WeatherDisplay:10.37,2013-08-05 00:19:00,
2013-08-04 19:24:00,76.0,65.9,30.03,NNE,21,0.0,0.0,71,0.00,CLR,,0.00,WeatherDisplay:10.37,2013-08-05 00:24:00,
2013-08-04 19:29:00,75.7,64.8,30.03,NNE,21,0.0,0.0,69,0.00,CLR,,0.00,WeatherDisplay:10.37,2013-08-05 00:29:00,
2013-08-04 19:34:00,75.5,64.6,30.03,NNE,21,0.0,0.0,69,0.00,CLR,,0.00,WeatherDisplay:10.37,2013-08-05 00:34:00,
2013-08-04 19:39:00,75.2,64.3,30.03,NNE,21,0.0,0.0,69,0.00,CLR,,0.00,WeatherDisplay:10.37,2013-08-05 00:39:00,
2013-08-04 19:44:00,75.0,64.5,30.03,NNE,21,0.0,0.0,70,0.00,CLR,,0.00,WeatherDisplay:10.37,2013-08-05 00:44:00,
2013-08-04 19:49:00,74.7,64.7,30.02,NNE,21,0.0,0.1,71,0.00,CLR,,0.00,WeatherDisplay:10.37,2013-08-05 00:49:00,
2013-08-04 19:55:00,74.4,64.4,30.03,NNE,21,0.0,0.0,71,0.00,CLR,,0.00,WeatherDisplay:10.37,2013-08-05 00:55:00,
2013-08-04 20:00:00,74.2,64.2,30.03,NNE,21,0.0,0.0,71,0.00,CLR,,0.00,WeatherDisplay:10.37,2013-08-05 01:00:00,
2013-08-04 20:04:00,74.0,64.0,30.03,NNE,21,0.0,0.0,71,0.00,CLR,,0.00,WeatherDisplay:10.37,2013-08-05 01:04:00,
2013-08-04 20:10:00,73.8,64.2,30.03,NNE,21,0.0,0.0,72,0.00,CLR,,0.00,WeatherDisplay:10.37,2013-08-05 01:10:00,
2013-08-04 20:15:00,73.6,64.4,30.03,NNE,21,0.0,0.0,73,0.00,CLR,,0.00,WeatherDisplay:10.37,2013-08-05 01:15:00,
2013-08-04 20:20:00,73.4,64.2,30.03,NNE,21,0.0,0.0,73,0.00,CLR,,0.00,WeatherDisplay:10.37,2013-08-05 01:20:00,
2013-08-04 20:24:00,73.2,64.0,30.03,NNE,21,0.0,0.0,73,0.00,CLR,,0.00,WeatherDisplay:10.37,2013-08-05 01:24:00,
2013-08-04 20:30:00,73.0,64.2,30.03,NNE,21,0.0,0.0,74,0.00,CLR,,0.00,WeatherDisplay:10.37,2013-08-05 01:30:00,
2013-08-04 20:35:00,72.8,64.0,30.03,NNE,21,0.0,0.0,74,0.00,CLR,,0.00,WeatherDisplay:10.37,2013-08-05 01:35:00,
2013-08-04 20:40:00,72.7,64.3,30.03,NNE,21,0.0,0.0,75,0.00,CLR,,0.00,WeatherDisplay:10.37,2013-08-05 01:40:00,
2013-08-04 20:45:00,72.6,64.6,30.03,NNE,21,0.0,0.0,76,0.00,CLR,,0.00,WeatherDisplay:10.37,2013-08-05 01:45:00,
2013-08-04 20:49:00,72.6,65.0,30.03,NNE,21,0.0,0.0,77,0.00,CLR,,0.00,WeatherDisplay:10.37,2013-08-05 01:49:00,
2013-08-04 20:55:00,72.4,64.8,30.03,NNE,21,0.0,0.0,77,0.00,CLR,,0.00,WeatherDisplay:10.37,2013-08-05 01:55:00,
2013-08-04 20:59:00,72.0,64.0,30.03,NNE,21,0.0,0.0,76,0.00,CLR,,0.00,WeatherDisplay:10.37,2013-08-05 01:59:00,
2013-08-04 21:05:00,71.9,64.3,30.03,NNE,21,0.0,1.0,77,0.00,CLR,,0.00,WeatherDisplay:10.37,2013-08-05 02:05:00,
2013-08-04 21:09:00,71.8,64.9,30.03,NNE,21,0.0,0.0,79,0.00,CLR,,0.00,WeatherDisplay:10.37,2013-08-05 02:09:00,
2013-08-04 21:15:00,71.6,64.4,30.03,NNE,21,0.0,0.0,78,0.00,CLR,,0.00,WeatherDisplay:10.37,2013-08-05 02:15:00,
2013-08-04 21:20:00,71.6,64.4,30.03,NNE,21,0.0,0.0,78,0.00,CLR,,0.00,WeatherDisplay:10.37,2013-08-05 02:20:00,
2013-08-04 21:25:00,71.6,64.4,30.03,NNE,21,0.0,0.0,78,0.00,CLR,,0.00,WeatherDisplay:10.37,2013-08-05 02:25:00,
2013-08-04 21:30:00,71.5,64.3,30.04,NNE,21,0.0,0.0,78,0.00,CLR,,0.00,WeatherDisplay:10.37,2013-08-05 02:30:00,
2013-08-04 21:35:00,71.6,64.7,30.03,NNE,21,0.0,0.0,79,0.00,CLR,,0.00,WeatherDisplay:10.37,2013-08-05 02:35:00,
2013-08-04 21:40:00,71.5,64.3,30.03,NNE,21,0.0,0.0,78,0.00,CLR,,0.00,WeatherDisplay:10.37,2013-08-05 02:40:00,
2013-08-04 21:45:00,71.5,64.3,30.03,NNE,21,0.0,0.0,78,0.00,CLR,,0.00,WeatherDisplay:10.37,2013-08-05 02:45:00,
2013-08-04 21:50:00,71.4,64.2,30.03,NNE,21,0.0,0.0,78,0.00,CLR,,0.00,WeatherDisplay:10.37,2013-08-05 02:50:00,
2013-08-04 21:55:00,71.4,64.5,30.03,NNE,21,0.0,0.0,79,0.00,CLR,,0.00,WeatherDisplay:10.37,2013-08-05 02:55:00,
2013-08-04 22:00:00,71.4,64.5,30.04,NNE,21,0.0,0.0,79,0.00,CLR,,0.00,WeatherDisplay:10.37,2013-08-05 03:00:00,
2013-08-04 22:05:00,71.3,65.2,30.04,NNE,21,0.0,0.0,81,0.00,CLR,,0.00,WeatherDisplay:10.37,2013-08-05 03:05:00,
2013-08-04 22:09:00,71.0,64.9,30.04,NNE,21,0.0,0.0,81,0.00,CLR,,0.00,WeatherDisplay:10.37,2013-08-05 03:09:00,
2013-08-04 22:14:00,70.9,65.1,30.04,NNE,21,0.0,0.0,82,0.00,CLR,,0.00,WeatherDisplay:10.37,2013-08-05 03:14:00,
2013-08-04 22:20:00,70.5,64.8,30.04,NNE,21,0.0,0.0,82,0.00,CLR,,0.00,WeatherDisplay:10.37,2013-08-05 03:20:00,
2013-08-04 22:25:00,70.4,65.0,30.04,NNE,21,0.0,0.0,83,0.00,CLR,,0.00,WeatherDisplay:10.37,2013-08-05 03:25:00,
2013-08-04 22:30:00,70.2,64.8,30.04,NNE,21,0.0,0.0,83,0.00,CLR,,0.00,WeatherDisplay:10.37,2013-08-05 03:30:00,
2013-08-04 22:35:00,70.1,65.0,30.04,NNE,21,0.0,0.0,84,0.00,CLR,,0.00,WeatherDisplay:10.37,2013-08-05 03:35:00,
2013-08-04 22:39:00,70.0,65.3,30.04,NNE,21,0.0,0.0,85,0.00,CLR,,0.00,WeatherDisplay:10.37,2013-08-05 03:39:00,
2013-08-04 22:45:00,69.8,64.7,30.04,NNE,21,0.0,0.0,84,0.00,CLR,,0.00,WeatherDisplay:10.37,2013-08-05 03:45:00,
2013-08-04 22:50:00,69.6,64.9,30.05,NNE,21,0.0,0.0,85,0.00,CLR,,0.00,WeatherDisplay:10.37,2013-08-05 03:50:00,
2013-08-04 22:54:00,69.5,64.8,30.05,NNE,21,0.0,0.0,85,0.00,CLR,,0.00,WeatherDisplay:10.37,2013-08-05 03:54:00,
2013-08-04 23:00:00,69.4,65.0,30.05,NNE,21,0.0,0.0,86,0.00,CLR,,0.00,WeatherDisplay:10.37,2013-08-05 04:00:00,
2013-08-04 23:01:00,69.4,65.0,30.05,NNE,21,0.0,0.0,86,0.00,CLR,,0.00,WeatherDisplay:10.37,2013-08-05 04:01:00,
2013-08-04 23:02:00,69.4,65.0,30.05,NNE,21,0.0,0.0,86,0.00,CLR,,0.00,WeatherDisplay:10.37,2013-08-05 04:02:00,
2013-08-04 23:07:00,69.3,65.3,30.05,NNE,21,0.0,0.0,87,0.00,CLR,,0.00,WeatherDisplay:10.37,2013-08-05 04:07:00,
2013-08-04 23:12:00,69.3,64.9,30.05,NNE,21,0.0,0.0,86,0.00,CLR,,0.00,WeatherDisplay:10.37,2013-08-05 04:12:00,
2013-08-04 23:17:00,69.3,64.9,30.04,NNE,21,0.0,0.0,86,0.00,CLR,,0.00,WeatherDisplay:10.37,2013-08-05 04:17:00,
2013-08-04 23:22:00,69.2,64.5,30.04,NNE,21,0.0,0.0,85,0.00,CLR,,0.00,WeatherDisplay:10.37,2013-08-05 04:22:00,
2013-08-04 23:27:00,69.3,64.3,30.03,NNE,21,0.0,0.0,84,0.00,CLR,,0.00,WeatherDisplay:10.37,2013-08-05 04:27:00,
2013-08-04 23:32:00,69.5,64.5,30.03,NNE,21,0.0,0.0,84,0.00,CLR,,0.00,WeatherDisplay:10.37,2013-08-05 04:32:00,
2013-08-04 23:37:00,69.7,64.3,30.03,NNE,21,0.0,0.0,83,0.00,CLR,,0.00,WeatherDisplay:10.37,2013-08-05 04:37:00,
2013-08-04 23:42:00,69.7,64.0,30.03,NNE,21,0.0,0.0,82,0.00,CLR,,0.00,WeatherDisplay:10.37,2013-08-05 04:42:00,
2013-08-04 23:47:00,69.8,64.4,30.03,NNE,21,0.0,0.0,83,0.00,CLR,,0.00,WeatherDisplay:10.37,2013-08-05 04:47:00,
2013-08-04 23:52:00,69.9,64.2,30.03,NNE,21,0.0,0.0,82,0.00,CLR,,0.00,WeatherDisplay:10.37,2013-08-05 04:52:00,
2013-08-04 23:57:00,69.9,64.2,30.03,NNE,21,0.0,0.0,82,0.00,CLR,,0.00,WeatherDisplay:10.37,2013-08-05 04:57:00,